Time;durP1;ratioP1;P1;durP2;ratioP2;P2;SDS_P1;SDS_P2;PMS_P1;PMS_P2;Temp;Humidity;BMP_temperature;BMP_pressure;BME280_temperature;BME280_humidity;BME280_pressure;Samples;Min_cycle;Max_cycle;Signal;HPM_P1;HPM_P2
2022/07/17 00:01:26;;;;;;;;;;;20.20;99.90;;;;;;4593251;19;19926;-32
2022/07/17 00:02:57;;;;;;;;;;;20.20;99.90;;;;;;4594272;19;20317;-34
2022/07/17 00:04:28;;;;;;;;;;;20.30;99.90;;;;;;4594575;19;19915;-33
2022/07/17 00:05:59;;;;;;;;;;;20.20;99.90;;;;;;4595042;19;19919;-33
2022/07/17 00:07:30;;;;;;;;;;;20.20;99.90;;;;;;4594200;19;19918;-34
2022/07/17 00:09:01;;;;;;;;;;;20.20;99.90;;;;;;4594822;19;19911;-32
2022/07/17 00:10:32;;;;;;;;;;;20.20;99.90;;;;;;4594855;19;19924;-33
2022/07/17 00:12:03;;;;;;;;;;;20.20;99.90;;;;;;4593657;19;19952;-34
2022/07/17 00:13:34;;;;;;;;;;;20.20;99.90;;;;;;4593260;19;19930;-35
2022/07/17 00:15:05;;;;;;;;;;;20.20;99.90;;;;;;4593101;19;19948;-34
2022/07/17 00:16:36;;;;;;;;;;;20.10;99.90;;;;;;4592100;19;19911;-33
2022/07/17 00:18:08;;;;;;;;;;;20.20;99.90;;;;;;4592168;19;19932;-32
2022/07/17 00:19:39;;;;;;;;;;;20.10;99.90;;;;;;4592591;19;19925;-34
2022/07/17 00:21:10;;;;;;;;;;;20.20;99.90;;;;;;4593701;19;19919;-35
2022/07/17 00:22:42;;;;;;;;;;;20.20;99.90;;;;;;4595005;19;20294;-32
2022/07/17 00:24:19;;;;;;;;;;;20.10;99.90;;;;;;4594000;19;19943;-35
2022/07/17 00:25:50;;;;;;;;;;;20.10;99.90;;;;;;4594327;19;19914;-33
2022/07/17 00:27:21;;;;;;;;;;;20.10;99.90;;;;;;4593258;19;19919;-33
2022/07/17 00:28:52;;;;;;;;;;;20.10;99.90;;;;;;4593300;19;20259;-33
2022/07/17 00:30:23;;;;;;;;;;;20.00;99.90;;;;;;4593564;19;19923;-32
2022/07/17 00:31:54;;;;;;;;;;;20.00;99.90;;;;;;4594003;19;19921;-33
2022/07/17 00:33:25;;;;;;;;;;;20.00;99.90;;;;;;4594689;19;19914;-35
2022/07/17 00:34:56;;;;;;;;;;;20.00;99.90;;;;;;4594497;19;19914;-35
2022/07/17 00:36:27;;;;;;;;;;;20.00;99.90;;;;;;4591192;19;19922;-33
2022/07/17 00:37:58;;;;;;;;;;;20.00;99.90;;;;;;4593415;19;19918;-35
2022/07/17 00:39:29;;;;;;;;;;;20.00;99.90;;;;;;4594414;19;19915;-35
2022/07/17 00:41:00;;;;;;;;;;;20.00;99.90;;;;;;4593519;19;19918;-32
2022/07/17 00:42:31;;;;;;;;;;;20.00;99.90;;;;;;4593636;19;19938;-34
2022/07/17 00:44:03;;;;;;;;;;;19.90;99.90;;;;;;4594144;19;19907;-33
2022/07/17 00:45:34;;;;;;;;;;;19.90;99.90;;;;;;4593974;19;20332;-33
2022/07/17 00:47:20;;;;;;;;;;;19.90;99.90;;;;;;4593478;19;19937;-33
2022/07/17 00:48:51;;;;;;;;;;;19.90;99.90;;;;;;4592628;19;19939;-35
2022/07/17 00:50:42;;;;;;;;;;;19.90;99.90;;;;;;4593102;19;19915;-33
2022/07/17 00:52:13;;;;;;;;;;;19.90;99.90;;;;;;4593582;19;19918;-33
2022/07/17 00:53:44;;;;;;;;;;;19.90;99.90;;;;;;4594166;19;19988;-33
2022/07/17 00:55:16;;;;;;;;;;;19.90;99.90;;;;;;4592402;19;19914;-35
2022/07/17 00:56:47;;;;;;;;;;;19.90;99.90;;;;;;4593860;19;19926;-33
2022/07/17 00:58:19;;;;;;;;;;;19.90;99.90;;;;;;4592298;19;19933;-35
2022/07/17 00:59:50;;;;;;;;;;;19.90;99.90;;;;;;4592801;19;19999;-35
2022/07/17 01:01:21;;;;;;;;;;;19.90;99.90;;;;;;4592984;19;19923;-34
2022/07/17 01:02:52;;;;;;;;;;;19.90;99.90;;;;;;4593517;19;19910;-33
2022/07/17 01:04:23;;;;;;;;;;;19.90;99.90;;;;;;4593464;19;19915;-33
2022/07/17 01:05:54;;;;;;;;;;;19.90;99.90;;;;;;4591898;19;20285;-34
2022/07/17 01:07:26;;;;;;;;;;;19.90;99.90;;;;;;4593010;19;19935;-34
2022/07/17 01:08:57;;;;;;;;;;;19.90;99.90;;;;;;4593618;19;19926;-33
2022/07/17 01:10:27;;;;;;;;;;;19.90;99.90;;;;;;4593419;19;19918;-35
2022/07/17 01:11:59;;;;;;;;;;;19.90;99.90;;;;;;4592900;19;19919;-33
2022/07/17 01:13:30;;;;;;;;;;;19.90;99.90;;;;;;4592113;19;19925;-35
2022/07/17 01:15:01;;;;;;;;;;;19.90;99.90;;;;;;4592962;19;19918;-36
2022/07/17 01:16:32;;;;;;;;;;;19.90;99.90;;;;;;4592151;19;20032;-35
2022/07/17 01:18:04;;;;;;;;;;;19.90;99.90;;;;;;4593088;19;19910;-33
2022/07/17 01:19:35;;;;;;;;;;;19.90;99.90;;;;;;4592317;19;19922;-35
2022/07/17 01:21:06;;;;;;;;;;;19.90;99.90;;;;;;4593009;19;19914;-33
2022/07/17 01:22:44;;;;;;;;;;;19.90;99.90;;;;;;4592687;19;19932;-33
2022/07/17 01:24:15;;;;;;;;;;;19.90;99.90;;;;;;4592502;19;19918;-34
2022/07/17 01:25:46;;;;;;;;;;;19.90;99.90;;;;;;4593025;19;20332;-34
2022/07/17 01:27:17;;;;;;;;;;;19.90;99.90;;;;;;4593677;19;19974;-33
2022/07/17 01:28:48;;;;;;;;;;;19.90;99.90;;;;;;4592628;19;19919;-33
2022/07/17 01:30:18;;;;;;;;;;;19.90;99.90;;;;;;4592974;19;19925;-33
2022/07/17 01:31:50;;;;;;;;;;;19.90;99.90;;;;;;4593136;19;20263;-33
2022/07/17 01:33:21;;;;;;;;;;;19.90;99.90;;;;;;4593061;19;19922;-35
2022/07/17 01:34:52;;;;;;;;;;;19.90;99.90;;;;;;4592633;19;19918;-34
2022/07/17 01:36:23;;;;;;;;;;;19.90;99.90;;;;;;4591993;19;19911;-35
2022/07/17 01:37:55;;;;;;;;;;;19.90;99.90;;;;;;4591411;19;19926;-35
2022/07/17 01:41:15;;;;;;;;;;;19.80;99.90;;;;;;4592308;19;20345;-35
2022/07/17 01:42:47;;;;;;;;;;;19.90;99.90;;;;;;4592868;19;19923;-33
2022/07/17 01:44:18;;;;;;;;;;;19.90;99.90;;;;;;4592558;19;20340;-34
2022/07/17 01:45:49;;;;;;;;;;;19.90;99.90;;;;;;4593026;19;19974;-33
2022/07/17 01:47:20;;;;;;;;;;;19.90;99.90;;;;;;4592288;19;20325;-33
2022/07/17 01:48:51;;;;;;;;;;;19.90;99.90;;;;;;4592618;19;20385;-33
2022/07/17 01:50:23;;;;;;;;;;;19.80;99.90;;;;;;4592454;19;19952;-33
2022/07/17 01:51:54;;;;;;;;;;;19.90;99.90;;;;;;4591455;19;19915;-34
2022/07/17 01:53:25;;;;;;;;;;;19.90;99.90;;;;;;4590421;19;19994;-33
2022/07/17 01:54:55;;;;;;;;;;;19.80;99.90;;;;;;4592474;19;20254;-33
2022/07/17 01:56:27;;;;;;;;;;;19.90;99.90;;;;;;4591302;19;19922;-35
2022/07/17 01:57:58;;;;;;;;;;;19.90;99.90;;;;;;4590888;19;19933;-33
2022/07/17 01:59:29;;;;;;;;;;;19.80;99.90;;;;;;4591888;19;19932;-33
2022/07/17 02:01:00;;;;;;;;;;;19.90;99.90;;;;;;4592210;19;20329;-33
2022/07/17 02:02:31;;;;;;;;;;;19.90;99.90;;;;;;4592277;19;19947;-35
2022/07/17 02:04:02;;;;;;;;;;;19.90;99.90;;;;;;4592105;19;19912;-35
2022/07/17 02:05:33;;;;;;;;;;;19.90;99.90;;;;;;4591969;19;19925;-33
2022/07/17 02:07:04;;;;;;;;;;;19.90;99.90;;;;;;4592444;19;19923;-34
2022/07/17 02:08:35;;;;;;;;;;;19.90;99.90;;;;;;4591901;19;19939;-35
2022/07/17 02:10:07;;;;;;;;;;;19.80;99.90;;;;;;4591766;19;20348;-33
2022/07/17 02:11:38;;;;;;;;;;;19.80;99.90;;;;;;4592506;19;19915;-33
2022/07/17 02:13:09;;;;;;;;;;;19.80;99.90;;;;;;4592450;19;19938;-33
2022/07/17 02:14:40;;;;;;;;;;;19.80;99.90;;;;;;4591440;19;19919;-34
2022/07/17 02:16:11;;;;;;;;;;;19.80;99.90;;;;;;4591196;19;19921;-33
2022/07/17 02:17:42;;;;;;;;;;;19.80;99.90;;;;;;4592230;19;19923;-35
2022/07/17 02:19:13;;;;;;;;;;;19.80;99.90;;;;;;4591905;19;19919;-33
2022/07/17 02:20:49;;;;;;;;;;;19.80;99.90;;;;;;4591466;19;20305;-33
2022/07/17 02:22:20;;;;;;;;;;;19.80;99.90;;;;;;4591766;19;20233;-33
2022/07/17 02:23:51;;;;;;;;;;;19.80;99.90;;;;;;4592139;19;19914;-34
2022/07/17 02:25:21;;;;;;;;;;;19.80;99.90;;;;;;4592448;19;20362;-35
2022/07/17 02:26:53;;;;;;;;;;;19.80;99.90;;;;;;4591566;19;19978;-33
2022/07/17 02:28:24;;;;;;;;;;;19.80;99.90;;;;;;4591736;19;20257;-33
2022/07/17 02:29:55;;;;;;;;;;;19.80;99.90;;;;;;4592099;19;19915;-34
2022/07/17 02:31:26;;;;;;;;;;;19.80;99.90;;;;;;4591697;19;19923;-32
2022/07/17 02:32:57;;;;;;;;;;;19.80;99.90;;;;;;4591601;19;19922;-33
2022/07/17 02:34:28;;;;;;;;;;;19.80;99.90;;;;;;4591872;19;19958;-33
2022/07/17 02:36:01;;;;;;;;;;;19.80;99.90;;;;;;4591781;19;19911;-33
2022/07/17 02:37:32;;;;;;;;;;;19.80;99.90;;;;;;4591226;19;19922;-33
2022/07/17 02:39:03;;;;;;;;;;;19.80;99.90;;;;;;4591286;19;19914;-34
2022/07/17 02:40:34;;;;;;;;;;;19.80;99.90;;;;;;4591133;19;19919;-33
2022/07/17 02:42:05;;;;;;;;;;;19.80;99.90;;;;;;4591554;19;20364;-35
2022/07/17 02:43:36;;;;;;;;;;;19.70;99.90;;;;;;4591099;19;20325;-32
2022/07/17 02:45:07;;;;;;;;;;;19.80;99.90;;;;;;4591584;19;20293;-34
2022/07/17 02:46:38;;;;;;;;;;;19.80;99.90;;;;;;4592012;19;19966;-32
2022/07/17 02:48:09;;;;;;;;;;;19.80;99.90;;;;;;4591238;19;19917;-33
2022/07/17 02:49:40;;;;;;;;;;;19.80;99.90;;;;;;4591309;19;20232;-33
2022/07/17 02:51:11;;;;;;;;;;;19.70;99.90;;;;;;4591534;19;19922;-36
2022/07/17 02:52:43;;;;;;;;;;;19.80;99.90;;;;;;4591719;19;19915;-33
2022/07/17 02:54:14;;;;;;;;;;;19.80;99.90;;;;;;4590820;19;19939;-33
2022/07/17 02:55:45;;;;;;;;;;;19.80;99.90;;;;;;4589651;19;20337;-33
2022/07/17 02:57:18;;;;;;;;;;;19.70;99.90;;;;;;4591248;19;20351;-35
2022/07/17 02:58:49;;;;;;;;;;;19.80;99.90;;;;;;4591617;19;19914;-33
2022/07/17 03:00:20;;;;;;;;;;;19.70;99.90;;;;;;4590945;19;19961;-33
2022/07/17 03:01:51;;;;;;;;;;;19.70;99.90;;;;;;4591303;19;19970;-35
2022/07/17 03:03:22;;;;;;;;;;;19.70;99.90;;;;;;4588423;19;19919;-33
2022/07/17 03:04:53;;;;;;;;;;;19.80;99.90;;;;;;4590222;19;19966;-33
2022/07/17 03:06:24;;;;;;;;;;;19.70;99.90;;;;;;4595114;19;19915;-33
2022/07/17 03:07:55;;;;;;;;;;;19.80;99.90;;;;;;4596058;19;19923;-33
2022/07/17 03:09:26;;;;;;;;;;;19.70;99.90;;;;;;4596500;19;20313;-33
2022/07/17 03:10:57;;;;;;;;;;;19.70;99.90;;;;;;4595332;19;19971;-33
2022/07/17 03:12:28;;;;;;;;;;;19.70;99.90;;;;;;4595854;19;20349;-33
2022/07/17 03:13:59;;;;;;;;;;;19.70;99.90;;;;;;4594809;19;19918;-33
2022/07/17 03:15:30;;;;;;;;;;;19.70;99.90;;;;;;4595245;19;19918;-34
2022/07/17 03:17:01;;;;;;;;;;;19.70;99.90;;;;;;4595515;19;19915;-32
2022/07/17 03:18:32;;;;;;;;;;;19.70;99.90;;;;;;4595646;19;19914;-33
2022/07/17 03:20:03;;;;;;;;;;;19.70;99.90;;;;;;4595580;19;19918;-33
2022/07/17 03:21:35;;;;;;;;;;;19.70;99.90;;;;;;4595903;19;19926;-34
2022/07/17 03:23:06;;;;;;;;;;;19.70;99.90;;;;;;4594050;19;19925;-33
2022/07/17 03:24:36;;;;;;;;;;;19.70;99.90;;;;;;4594817;19;19915;-33
2022/07/17 03:26:07;;;;;;;;;;;19.70;99.90;;;;;;4595557;19;19919;-35
2022/07/17 03:27:39;;;;;;;;;;;19.70;99.90;;;;;;4595030;19;19923;-33
2022/07/17 03:29:09;;;;;;;;;;;19.70;99.90;;;;;;4595391;19;19918;-33
2022/07/17 03:30:40;;;;;;;;;;;19.70;99.90;;;;;;4595483;19;19947;-33
2022/07/17 03:32:11;;;;;;;;;;;19.70;99.90;;;;;;4595786;19;20268;-35
2022/07/17 03:33:42;;;;;;;;;;;19.70;99.90;;;;;;4595158;19;19932;-33
2022/07/17 03:35:13;;;;;;;;;;;19.70;99.90;;;;;;4595100;19;19919;-33
2022/07/17 03:36:44;;;;;;;;;;;19.70;99.90;;;;;;4593387;19;19974;-33
2022/07/17 03:38:15;;;;;;;;;;;19.70;99.90;;;;;;4595292;19;19970;-33
2022/07/17 03:39:46;;;;;;;;;;;19.70;99.90;;;;;;4594815;19;19918;-33
2022/07/17 03:41:17;;;;;;;;;;;19.70;99.90;;;;;;4595008;19;19943;-33
2022/07/17 03:42:48;;;;;;;;;;;19.70;99.90;;;;;;4595197;19;20381;-33
2022/07/17 03:44:19;;;;;;;;;;;19.70;99.90;;;;;;4595170;19;19915;-33
2022/07/17 03:45:50;;;;;;;;;;;19.70;99.90;;;;;;4595176;19;19927;-35
2022/07/17 03:47:21;;;;;;;;;;;19.70;99.90;;;;;;4595091;19;19937;-33
2022/07/17 03:48:52;;;;;;;;;;;19.70;99.90;;;;;;4595442;19;20335;-32
2022/07/17 03:50:23;;;;;;;;;;;19.70;99.90;;;;;;4594768;19;19919;-33
2022/07/17 03:51:54;;;;;;;;;;;19.70;99.90;;;;;;4595129;19;19923;-33
2022/07/17 03:53:25;;;;;;;;;;;19.70;99.90;;;;;;4595247;19;19925;-35
2022/07/17 03:54:56;;;;;;;;;;;19.70;99.90;;;;;;4595455;19;19926;-32
2022/07/17 03:56:27;;;;;;;;;;;19.70;99.90;;;;;;4592974;19;19918;-33
2022/07/17 03:57:58;;;;;;;;;;;19.70;99.90;;;;;;4595081;19;19922;-34
2022/07/17 03:59:29;;;;;;;;;;;19.70;99.90;;;;;;4594875;19;19936;-34
2022/07/17 04:01:00;;;;;;;;;;;19.70;99.90;;;;;;4594562;19;20245;-33
2022/07/17 04:02:31;;;;;;;;;;;19.80;99.90;;;;;;4593594;19;19930;-35
2022/07/17 04:04:02;;;;;;;;;;;19.80;99.90;;;;;;4594416;19;19967;-33
2022/07/17 04:05:33;;;;;;;;;;;19.80;99.90;;;;;;4594737;19;19919;-34
2022/07/17 04:07:04;;;;;;;;;;;19.80;99.90;;;;;;4594178;19;20325;-33
2022/07/17 04:08:35;;;;;;;;;;;19.80;99.90;;;;;;4593478;19;19921;-30
2022/07/17 04:10:06;;;;;;;;;;;19.80;99.90;;;;;;4593912;19;19927;-33
2022/07/17 04:11:38;;;;;;;;;;;19.80;99.90;;;;;;4593391;19;19915;-33
2022/07/17 04:13:08;;;;;;;;;;;19.80;99.90;;;;;;4594002;19;19918;-33
2022/07/17 04:14:39;;;;;;;;;;;19.80;99.90;;;;;;4594732;19;19925;-34
2022/07/17 04:16:11;;;;;;;;;;;19.90;99.90;;;;;;4593263;19;19919;-33
2022/07/17 04:17:42;;;;;;;;;;;19.90;99.90;;;;;;4596548;19;19956;-33
2022/07/17 04:19:13;;;;;;;;;;;19.90;99.90;;;;;;4596014;19;20246;-33
2022/07/17 04:20:44;;;;;;;;;;;19.90;99.90;;;;;;4594763;19;19911;-33
2022/07/17 04:22:15;;;;;;;;;;;19.90;99.90;;;;;;4594407;19;19914;-33
2022/07/17 04:23:46;;;;;;;;;;;19.90;99.90;;;;;;4594140;19;20326;-34
2022/07/17 04:25:17;;;;;;;;;;;19.90;99.90;;;;;;4593188;19;20309;-33
2022/07/17 04:26:48;;;;;;;;;;;19.90;99.90;;;;;;4593726;19;19956;-33
2022/07/17 04:28:20;;;;;;;;;;;19.90;99.90;;;;;;4592784;19;19932;-33
2022/07/17 04:29:51;;;;;;;;;;;20.00;99.90;;;;;;4593508;19;19915;-35
2022/07/17 04:31:22;;;;;;;;;;;20.00;99.90;;;;;;4593264;19;19918;-33
2022/07/17 04:32:53;;;;;;;;;;;20.00;99.90;;;;;;4593697;19;19943;-33
2022/07/17 04:34:25;;;;;;;;;;;20.00;99.90;;;;;;4593551;19;19926;-34
2022/07/17 04:35:56;;;;;;;;;;;20.00;99.90;;;;;;4592941;19;19910;-33
2022/07/17 04:37:26;;;;;;;;;;;20.00;99.90;;;;;;4592735;19;19911;-34
2022/07/17 04:38:57;;;;;;;;;;;20.00;99.90;;;;;;4593033;19;19990;-33
2022/07/17 04:40:29;;;;;;;;;;;20.00;99.90;;;;;;4594157;19;20240;-34
2022/07/17 04:42:00;;;;;;;;;;;20.10;99.90;;;;;;4592290;19;19929;-33
2022/07/17 04:43:31;;;;;;;;;;;20.10;99.90;;;;;;4592105;19;19966;-35
2022/07/17 04:45:01;;;;;;;;;;;20.10;99.90;;;;;;4592022;19;19950;-35
2022/07/17 04:46:33;;;;;;;;;;;20.10;99.90;;;;;;4594386;19;19936;-33
2022/07/17 04:48:04;;;;;;;;;;;20.10;99.90;;;;;;4593844;19;19915;-33
2022/07/17 04:49:35;;;;;;;;;;;20.10;99.90;;;;;;4593850;19;19911;-33
2022/07/17 04:51:06;;;;;;;;;;;20.20;99.90;;;;;;4593611;19;19926;-33
2022/07/17 04:52:38;;;;;;;;;;;20.20;99.90;;;;;;4592878;19;19915;-35
2022/07/17 04:54:08;;;;;;;;;;;20.20;99.90;;;;;;4592212;19;19918;-35
2022/07/17 04:55:40;;;;;;;;;;;20.20;99.90;;;;;;4589925;19;19954;-33
2022/07/17 04:57:11;;;;;;;;;;;20.20;99.90;;;;;;4593767;19;20406;-35
2022/07/17 04:58:42;;;;;;;;;;;20.20;99.90;;;;;;4593582;19;19948;-33
2022/07/17 05:00:14;;;;;;;;;;;20.20;99.90;;;;;;4593172;19;19915;-33
2022/07/17 05:01:45;;;;;;;;;;;20.30;99.90;;;;;;4593447;19;19910;-34
2022/07/17 05:03:16;;;;;;;;;;;20.30;99.90;;;;;;4592601;19;19926;-34
2022/07/17 05:04:47;;;;;;;;;;;20.30;99.90;;;;;;4592506;19;20345;-34
2022/07/17 05:06:18;;;;;;;;;;;20.30;99.90;;;;;;4591905;19;19918;-35
2022/07/17 05:07:49;;;;;;;;;;;20.40;99.90;;;;;;4591647;19;19919;-34
2022/07/17 05:09:20;;;;;;;;;;;20.40;99.90;;;;;;4591521;19;19990;-34
2022/07/17 05:10:51;;;;;;;;;;;20.40;99.90;;;;;;4594369;19;19914;-36
2022/07/17 05:12:22;;;;;;;;;;;20.40;99.90;;;;;;4594017;19;19915;-33
2022/07/17 05:13:54;;;;;;;;;;;20.50;99.90;;;;;;4593238;19;19956;-34
2022/07/17 05:15:25;;;;;;;;;;;20.50;99.90;;;;;;4592591;19;19926;-34
2022/07/17 05:16:56;;;;;;;;;;;20.50;99.90;;;;;;4592308;19;19988;-32
2022/07/17 05:18:27;;;;;;;;;;;20.50;99.90;;;;;;4592375;19;19915;-36
2022/07/17 05:19:58;;;;;;;;;;;20.50;99.90;;;;;;4591229;19;19915;-34
2022/07/17 05:21:28;;;;;;;;;;;20.50;99.90;;;;;;4592053;19;20532;-34
2022/07/17 05:23:00;;;;;;;;;;;20.50;99.90;;;;;;4592511;19;19919;-34
2022/07/17 05:24:32;;;;;;;;;;;20.50;99.90;;;;;;4592433;19;19914;-34
2022/07/17 05:26:03;;;;;;;;;;;20.50;99.90;;;;;;4593428;19;19918;-33
2022/07/17 05:27:33;;;;;;;;;;;20.60;99.90;;;;;;4592384;19;19933;-34
2022/07/17 05:29:23;;;;;;;;;;;20.60;99.90;;;;;;4591312;19;20333;-33
2022/07/17 05:30:54;;;;;;;;;;;20.60;99.90;;;;;;4592921;19;19915;-33
2022/07/17 05:32:25;;;;;;;;;;;20.70;99.90;;;;;;4592561;19;20460;-34
2022/07/17 05:33:56;;;;;;;;;;;20.80;99.90;;;;;;4592327;19;19929;-34
2022/07/17 05:35:27;;;;;;;;;;;20.90;99.90;;;;;;4593436;19;19930;-34
2022/07/17 05:36:58;;;;;;;;;;;20.90;99.90;;;;;;4592828;19;19913;-33
2022/07/17 05:38:29;;;;;;;;;;;21.00;99.90;;;;;;4591415;19;20588;-36
2022/07/17 05:40:00;;;;;;;;;;;21.10;99.90;;;;;;4592167;19;20385;-34
2022/07/17 05:41:31;;;;;;;;;;;21.10;99.90;;;;;;4591075;19;19954;-34
2022/07/17 05:43:02;;;;;;;;;;;21.10;99.90;;;;;;4592626;19;20333;-36
2022/07/17 05:44:33;;;;;;;;;;;21.20;99.90;;;;;;4592686;19;19940;-34
2022/07/17 05:46:04;;;;;;;;;;;21.20;99.90;;;;;;4592157;19;19941;-33
2022/07/17 05:47:36;;;;;;;;;;;21.20;99.90;;;;;;4590378;19;19914;-35
2022/07/17 05:49:06;;;;;;;;;;;21.30;99.90;;;;;;4592420;19;19942;-34
2022/07/17 05:50:37;;;;;;;;;;;21.30;99.90;;;;;;4592934;19;19911;-35
2022/07/17 05:52:08;;;;;;;;;;;21.30;99.90;;;;;;4592252;19;19919;-35
2022/07/17 05:53:40;;;;;;;;;;;21.30;99.90;;;;;;4592058;19;19915;-33
2022/07/17 05:55:10;;;;;;;;;;;21.30;99.90;;;;;;4591893;19;19925;-35
2022/07/17 05:56:41;;;;;;;;;;;21.30;99.90;;;;;;4590794;19;19918;-34
2022/07/17 05:58:12;;;;;;;;;;;21.30;99.90;;;;;;4591620;19;19922;-34
2022/07/17 05:59:43;;;;;;;;;;;21.30;99.90;;;;;;4590637;19;19919;-33
2022/07/17 06:01:14;;;;;;;;;;;21.30;99.90;;;;;;4590897;19;19910;-36
2022/07/17 06:02:45;;;;;;;;;;;21.30;99.90;;;;;;4589232;19;19977;-34
2022/07/17 06:04:16;;;;;;;;;;;21.30;99.90;;;;;;4589643;19;19922;-33
2022/07/17 06:05:47;;;;;;;;;;;21.20;99.90;;;;;;4590311;19;20269;-33
2022/07/17 06:07:18;;;;;;;;;;;21.20;99.90;;;;;;4592090;19;19918;-34
2022/07/17 06:08:49;;;;;;;;;;;21.20;99.90;;;;;;4592503;19;19914;-34
2022/07/17 06:10:20;;;;;;;;;;;21.10;99.90;;;;;;4592534;19;19911;-34
2022/07/17 06:11:51;;;;;;;;;;;21.10;99.90;;;;;;4590327;19;19922;-33
2022/07/17 06:13:22;;;;;;;;;;;21.10;99.90;;;;;;4590035;19;20388;-33
2022/07/17 06:14:53;;;;;;;;;;;21.20;99.90;;;;;;4592346;19;19911;-33
2022/07/17 06:16:27;;;;;;;;;;;21.20;99.90;;;;;;4590565;19;19935;-34
2022/07/17 06:18:02;;;;;;;;;;;21.30;99.90;;;;;;4591597;19;19933;-35
2022/07/17 06:19:33;;;;;;;;;;;21.30;99.90;;;;;;4591872;19;20341;-33
2022/07/17 06:21:04;;;;;;;;;;;21.50;99.90;;;;;;4592123;19;19911;-33
2022/07/17 06:22:38;;;;;;;;;;;21.60;99.90;;;;;;4591337;19;20245;-34
2022/07/17 06:24:09;;;;;;;;;;;21.60;99.90;;;;;;4591653;19;19938;-33
2022/07/17 06:25:40;;;;;;;;;;;21.50;99.90;;;;;;4591010;19;19922;-36
2022/07/17 06:27:11;;;;;;;;;;;21.60;99.90;;;;;;4591495;19;19941;-34
2022/07/17 06:28:42;;;;;;;;;;;21.50;99.90;;;;;;4591717;19;19922;-35
2022/07/17 06:30:14;;;;;;;;;;;21.30;99.90;;;;;;4590150;19;19954;-33
2022/07/17 06:31:45;;;;;;;;;;;21.30;99.90;;;;;;4590145;19;19942;-33
2022/07/17 06:33:16;;;;;;;;;;;21.30;99.90;;;;;;4590319;19;20245;-34
2022/07/17 06:34:47;;;;;;;;;;;21.20;99.90;;;;;;4592348;19;19919;-33
2022/07/17 06:36:18;;;;;;;;;;;21.40;99.90;;;;;;4591567;19;19911;-32
2022/07/17 06:37:49;;;;;;;;;;;21.40;99.90;;;;;;4591926;19;19918;-34
2022/07/17 06:39:20;;;;;;;;;;;21.30;99.90;;;;;;4590026;19;19923;-33
2022/07/17 06:40:51;;;;;;;;;;;21.20;99.90;;;;;;4589601;19;19915;-33
2022/07/17 06:42:22;;;;;;;;;;;21.20;99.90;;;;;;4589452;19;19925;-33
2022/07/17 06:43:53;;;;;;;;;;;21.20;99.90;;;;;;4591732;19;19918;-31
2022/07/17 06:45:24;;;;;;;;;;;21.20;99.90;;;;;;4589704;19;19925;-33
2022/07/17 06:46:55;;;;;;;;;;;21.30;99.90;;;;;;4592018;19;20360;-35
2022/07/17 06:48:26;;;;;;;;;;;21.20;99.90;;;;;;4591566;19;19927;-34
2022/07/17 06:49:57;;;;;;;;;;;21.50;99.90;;;;;;4592467;19;20317;-35
2022/07/17 06:51:28;;;;;;;;;;;21.60;99.90;;;;;;4591522;19;19921;-34
2022/07/17 06:52:59;;;;;;;;;;;21.60;99.90;;;;;;4590134;19;19935;-34
2022/07/17 06:54:30;;;;;;;;;;;21.60;99.90;;;;;;4590495;19;19919;-36
2022/07/17 06:56:01;;;;;;;;;;;21.70;99.90;;;;;;4588486;19;19938;-33
2022/07/17 06:57:32;;;;;;;;;;;21.70;99.90;;;;;;4588513;19;19926;-33
2022/07/17 06:59:03;;;;;;;;;;;21.80;99.90;;;;;;4590252;19;19939;-34
2022/07/17 07:00:34;;;;;;;;;;;21.80;99.90;;;;;;4590911;19;19907;-33
2022/07/17 07:02:05;;;;;;;;;;;21.80;99.90;;;;;;4591097;19;19938;-34
2022/07/17 07:03:36;;;;;;;;;;;22.00;99.90;;;;;;4590891;19;20023;-35
2022/07/17 07:05:07;;;;;;;;;;;22.10;99.90;;;;;;4590711;19;19931;-33
2022/07/17 07:06:38;;;;;;;;;;;22.00;99.90;;;;;;4590447;19;19922;-33
2022/07/17 07:08:09;;;;;;;;;;;22.00;99.90;;;;;;4590498;19;20296;-33
2022/07/17 07:09:40;;;;;;;;;;;22.00;99.90;;;;;;4590835;19;19921;-34
2022/07/17 07:11:11;;;;;;;;;;;21.90;99.90;;;;;;4591088;19;19915;-35
2022/07/17 07:12:42;;;;;;;;;;;21.90;99.90;;;;;;4591057;19;19922;-33
2022/07/17 07:14:13;;;;;;;;;;;21.80;99.90;;;;;;4591168;19;20262;-32
2022/07/17 07:15:44;;;;;;;;;;;21.90;99.90;;;;;;4590770;19;19915;-34
2022/07/17 07:17:15;;;;;;;;;;;21.90;99.90;;;;;;4591161;19;19982;-34
2022/07/17 07:18:47;;;;;;;;;;;22.00;99.90;;;;;;4590259;19;20278;-36
2022/07/17 07:20:17;;;;;;;;;;;22.10;99.90;;;;;;4589922;19;19914;-33
2022/07/17 07:21:48;;;;;;;;;;;22.10;99.90;;;;;;4589459;19;19918;-35
2022/07/17 07:23:19;;;;;;;;;;;22.20;99.90;;;;;;4589558;19;19921;-33
2022/07/17 07:24:51;;;;;;;;;;;22.10;99.90;;;;;;4591349;19;19929;-33
2022/07/17 07:26:23;;;;;;;;;;;22.30;99.90;;;;;;4590773;19;19914;-33
2022/07/17 07:27:54;;;;;;;;;;;22.40;99.90;;;;;;4590717;19;19918;-33
2022/07/17 07:29:25;;;;;;;;;;;22.50;99.90;;;;;;4590647;19;19934;-34
2022/07/17 07:30:56;;;;;;;;;;;22.50;99.90;;;;;;4590686;19;19919;-33
2022/07/17 07:32:27;;;;;;;;;;;22.50;99.90;;;;;;4590195;19;19914;-34
2022/07/17 07:33:58;;;;;;;;;;;22.40;99.90;;;;;;4589259;19;19911;-33
2022/07/17 07:35:29;;;;;;;;;;;22.50;99.90;;;;;;4589645;19;19935;-34
2022/07/17 07:37:01;;;;;;;;;;;22.50;99.90;;;;;;4588879;19;20264;-35
2022/07/17 07:38:32;;;;;;;;;;;22.50;99.90;;;;;;4590650;19;19919;-35
2022/07/17 07:40:03;;;;;;;;;;;22.50;99.90;;;;;;4589966;19;19922;-35
2022/07/17 07:41:34;;;;;;;;;;;22.40;99.90;;;;;;4590090;19;19930;-33
2022/07/17 07:43:05;;;;;;;;;;;22.30;99.90;;;;;;4589114;19;19931;-33
2022/07/17 07:44:36;;;;;;;;;;;22.40;99.90;;;;;;4590241;19;19923;-34
2022/07/17 07:46:07;;;;;;;;;;;22.30;99.90;;;;;;4590876;19;19922;-33
2022/07/17 07:47:42;;;;;;;;;;;22.30;99.90;;;;;;4590001;19;19918;-33
2022/07/17 07:49:15;;;;;;;;;;;22.20;99.90;;;;;;4589920;19;19985;-33
2022/07/17 07:50:46;;;;;;;;;;;22.10;99.90;;;;;;4589308;19;19952;-34
2022/07/17 07:52:17;;;;;;;;;;;22.10;99.90;;;;;;4593639;19;19914;-35
2022/07/17 07:53:48;;;;;;;;;;;22.00;99.90;;;;;;4594828;19;20240;-33
2022/07/17 07:55:20;;;;;;;;;;;22.00;99.90;;;;;;4593918;19;19994;-33
2022/07/17 07:56:52;;;;;;;;;;;22.00;99.90;;;;;;4593075;19;19923;-34
2022/07/17 07:58:22;;;;;;;;;;;22.00;99.90;;;;;;4594495;19;19914;-33
2022/07/17 07:59:53;;;;;;;;;;;21.90;99.90;;;;;;4594155;19;19925;-33
2022/07/17 08:01:25;;;;;;;;;;;21.90;99.90;;;;;;4594432;19;19938;-33
2022/07/17 08:02:55;;;;;;;;;;;21.90;99.90;;;;;;4593475;19;19919;-34
2022/07/17 08:04:26;;;;;;;;;;;21.90;99.90;;;;;;4593842;19;19966;-33
2022/07/17 08:05:57;;;;;;;;;;;21.80;99.90;;;;;;4593561;19;20313;-33
2022/07/17 08:07:29;;;;;;;;;;;21.80;99.90;;;;;;4593177;19;19915;-33
2022/07/17 08:09:00;;;;;;;;;;;21.80;99.90;;;;;;4593911;19;19939;-34
2022/07/17 08:10:31;;;;;;;;;;;21.70;99.90;;;;;;4593425;19;19915;-34
2022/07/17 08:12:02;;;;;;;;;;;21.80;99.90;;;;;;4593390;19;20374;-35
2022/07/17 08:13:33;;;;;;;;;;;21.80;99.90;;;;;;4593929;19;19922;-33
2022/07/17 08:15:04;;;;;;;;;;;21.70;99.90;;;;;;4594228;19;19915;-34
2022/07/17 08:16:35;;;;;;;;;;;21.80;99.90;;;;;;4592938;19;19911;-34
2022/07/17 08:18:06;;;;;;;;;;;21.80;99.90;;;;;;4594717;19;20321;-34
2022/07/17 08:19:37;;;;;;;;;;;21.90;99.90;;;;;;4594308;19;20242;-34
2022/07/17 08:21:08;;;;;;;;;;;21.90;99.90;;;;;;4593949;19;19942;-34
2022/07/17 08:22:39;;;;;;;;;;;21.90;99.90;;;;;;4592871;19;19919;-34
2022/07/17 08:24:10;;;;;;;;;;;21.90;99.90;;;;;;4593637;19;19933;-33
2022/07/17 08:25:41;;;;;;;;;;;21.80;99.90;;;;;;4593926;19;20138;-33
2022/07/17 08:27:12;;;;;;;;;;;21.80;99.90;;;;;;4593851;19;20369;-35
2022/07/17 08:28:44;;;;;;;;;;;21.80;99.90;;;;;;4593786;19;19906;-33
2022/07/17 08:30:15;;;;;;;;;;;21.80;99.90;;;;;;4593223;19;19932;-33
2022/07/17 08:31:47;;;;;;;;;;;22.00;99.90;;;;;;4593533;19;19960;-33
2022/07/17 08:33:20;;;;;;;;;;;21.90;99.90;;;;;;4593459;19;20344;-35
2022/07/17 08:34:52;;;;;;;;;;;22.00;99.90;;;;;;4594608;19;19925;-34
2022/07/17 08:36:23;;;;;;;;;;;22.10;99.90;;;;;;4593154;19;19986;-33
2022/07/17 08:37:54;;;;;;;;;;;22.20;99.90;;;;;;4593900;19;20006;-35
2022/07/17 08:39:25;;;;;;;;;;;22.20;99.90;;;;;;4594196;19;19911;-35
2022/07/17 08:40:58;;;;;;;;;;;22.20;99.90;;;;;;4593965;19;19926;-36
2022/07/17 08:42:31;;;;;;;;;;;22.20;99.90;;;;;;4594024;19;19942;-34
2022/07/17 08:44:03;;;;;;;;;;;22.20;99.90;;;;;;4591959;19;19926;-34
2022/07/17 08:45:34;;;;;;;;;;;22.20;99.90;;;;;;4593604;19;20329;-35
2022/07/17 08:47:05;;;;;;;;;;;22.20;99.90;;;;;;4592360;19;19989;-33
2022/07/17 08:48:37;;;;;;;;;;;22.10;99.90;;;;;;4592320;19;19929;-34
2022/07/17 08:50:09;;;;;;;;;;;22.10;99.90;;;;;;4593028;19;19919;-33
2022/07/17 08:51:40;;;;;;;;;;;22.20;99.90;;;;;;4593534;19;19919;-35
2022/07/17 08:53:11;;;;;;;;;;;22.20;99.90;;;;;;4593368;19;20325;-33